Dades meteomassalio
Diari Summary for Juliol 5, 2017 Units:  Metric    English   Both
« Previous Day
Next Day »
Diari Semanal Mensual Anual Personalitzat
  Maxima: Minima: Mijana:
Temperatura: 33.0 °C 14.1 °C 24.6 °C
Rosada: 18.3 °C 9.3 °C 14.1 °C
Humitat: 75 % 37 % 53 %
Velocitat del vent: 33.3 km/h 0.0 km/h 9.3 km/h
Racha vent: 33.3 km/h - -
Vent:- - ESE
Pressio: 1015.8 hPa 1011.4 hPa -
Pluja: 0.0 mm    
Historical Graphs
 
 
Tabular Data for Juliol 5, 2017
Time Temperature Dew Point Pressure Wind Wind Speed Wind Gust Humidity Rainfall Rate (Hourly) solar Conditions
00:01 22.4 °C 12.1 °C 1015.1 hPa Calm     52 % 0.0 mm 0.0 W/m2 CLR
00:02 22.4 °C 12.1 °C 1015.1 hPa Calm     52 % 0.0 mm 0.0 W/m2 CLR
00:07 22.4 °C 12.3 °C 1015.1 hPa Calm     53 % 0.0 mm 0.0 W/m2 CLR
00:12 22.3 °C 12.2 °C 1015.5 hPa Calm     53 % 0.0 mm 0.0 W/m2 CLR
00:14 22.2 °C 12.2 °C 1015.5 hPa Calm     53 % 0.0 mm 0.0 W/m2 CLR
00:19 22.0 °C 11.7 °C 1015.5 hPa Calm     52 % 0.0 mm 0.0 W/m2 CLR
00:24 21.7 °C 11.7 °C 1015.1 hPa Calm     53 % 0.0 mm 0.0 W/m2 CLR
00:29 21.5 °C 11.8 °C 1015.1 hPa Calm     54 % 0.0 mm 0.0 W/m2 CLR
00:34 21.3 °C 11.9 °C 1015.5 hPa Calm     55 % 0.0 mm 0.0 W/m2 CLR
00:39 21.2 °C 11.8 °C 1015.5 hPa Calm     55 % 0.0 mm 0.0 W/m2 CLR
00:44 21.3 °C 11.6 °C 1015.1 hPa Calm     54 % 0.0 mm 0.0 W/m2 CLR
00:49 21.3 °C 11.6 °C 1015.5 hPa Calm     54 % 0.0 mm 0.0 W/m2 CLR
00:54 21.3 °C 11.3 °C 1015.1 hPa Calm     53 % 0.0 mm 0.0 W/m2 CLR
00:59 21.2 °C 11.3 °C 1015.1 hPa Calm     53 % 0.0 mm 0.0 W/m2 CLR
01:04 21.2 °C 11.3 °C 1015.1 hPa Calm     53 % 0.0 mm 0.0 W/m2 CLR
01:09 21.1 °C 10.9 °C 1015.1 hPa Calm     52 % 0.0 mm 0.0 W/m2 CLR
01:14 21.0 °C 11.1 °C 1015.1 hPa Calm     53 % 0.0 mm 0.0 W/m2 CLR
01:19 20.9 °C 11.0 °C 1015.1 hPa Calm     53 % 0.0 mm 0.0 W/m2 CLR
01:20 20.9 °C 10.9 °C 1015.5 hPa Calm     53 % 0.0 mm 0.0 W/m2 CLR
01:25 20.6 °C 11.0 °C 1015.5 hPa Calm     54 % 0.0 mm 0.0 W/m2 CLR
01:31 20.3 °C 10.7 °C 1015.1 hPa Calm     54 % 0.0 mm 0.0 W/m2 CLR
01:36 19.9 °C 10.8 °C 1015.1 hPa Calm     56 % 0.0 mm 0.0 W/m2 CLR
01:41 19.8 °C 11.3 °C 1015.5 hPa Calm     58 % 0.0 mm 0.0 W/m2 CLR
01:46 19.8 °C 11.3 °C 1015.1 hPa Calm     58 % 0.0 mm 0.0 W/m2 CLR
01:51 19.9 °C 11.6 °C 1015.1 hPa Calm     59 % 0.0 mm 0.0 W/m2 CLR
01:56 19.9 °C 11.4 °C 1015.1 hPa Calm     58 % 0.0 mm 0.0 W/m2 CLR
02:01 19.8 °C 11.3 °C 1015.5 hPa Calm     58 % 0.0 mm 0.0 W/m2 CLR
02:06 19.6 °C 10.6 °C 1015.5 hPa Calm     56 % 0.0 mm 0.0 W/m2 CLR
02:11 19.3 °C 12.1 °C 1015.1 hPa Calm     63 % 0.0 mm 0.0 W/m2 CLR
02:16 19.6 °C 11.3 °C 1015.1 hPa Calm     59 % 0.0 mm 0.0 W/m2 CLR
02:21 19.8 °C 12.6 °C 1015.1 hPa Calm     63 % 0.0 mm 0.0 W/m2 CLR
02:26 19.8 °C 11.6 °C 1015.1 hPa Calm     59 % 0.0 mm 0.0 W/m2 CLR
02:31 19.6 °C 11.8 °C 1015.1 hPa Calm     61 % 0.0 mm 0.0 W/m2 CLR
02:36 19.4 °C 12.7 °C 1015.1 hPa Calm     65 % 0.0 mm 0.0 W/m2 CLR
02:41 19.3 °C 12.6 °C 1015.1 hPa Calm     65 % 0.0 mm 0.0 W/m2 CLR
02:42 19.3 °C 12.3 °C 1015.1 hPa Calm     64 % 0.0 mm 0.0 W/m2 CLR
02:47 19.3 °C 13.0 °C 1015.1 hPa Calm     67 % 0.0 mm 0.0 W/m2 CLR
02:52 19.3 °C 13.0 °C 1015.1 hPa Calm     67 % 0.0 mm 0.0 W/m2 CLR
02:57 18.9 °C 10.8 °C 1015.1 hPa Calm     59 % 0.0 mm 0.0 W/m2 CLR
03:02 18.6 °C 10.2 °C 1015.1 hPa Calm     58 % 0.0 mm 0.0 W/m2 CLR
03:07 18.3 °C 10.4 °C 1015.1 hPa Calm     60 % 0.0 mm 0.0 W/m2 CLR
03:12 18.1 °C 10.7 °C 1015.1 hPa Calm     62 % 0.0 mm 0.0 W/m2 CLR
03:17 17.9 °C 10.8 °C 1015.1 hPa Calm     63 % 0.0 mm 0.0 W/m2 CLR
03:18 17.9 °C 10.7 °C 1015.1 hPa Calm     63 % 0.0 mm 0.0 W/m2 CLR
03:23 17.8 °C 11.3 °C 1015.1 hPa Calm     66 % 0.0 mm 0.0 W/m2 CLR
03:28 17.7 °C 11.4 °C 1015.1 hPa Calm     67 % 0.0 mm 0.0 W/m2 CLR
03:33 17.6 °C 10.7 °C 1015.1 hPa Calm     64 % 0.0 mm 0.0 W/m2 CLR
03:38 17.3 °C 10.0 °C 1015.1 hPa Calm     62 % 0.0 mm 0.0 W/m2 CLR
03:43 17.2 °C 10.1 °C 1015.1 hPa Calm     63 % 0.0 mm 0.0 W/m2 CLR
03:48 16.8 °C 9.7 °C 1015.1 hPa Calm     63 % 0.0 mm 0.0 W/m2 CLR
03:53 16.6 °C 10.2 °C 1015.1 hPa Calm     66 % 0.0 mm 0.0 W/m2 CLR
03:58 16.5 °C 10.6 °C 1015.1 hPa Calm     68 % 0.0 mm 0.0 W/m2 CLR
04:03 16.4 °C 10.1 °C 1015.1 hPa Calm     66 % 0.0 mm 0.0 W/m2 CLR
04:08 16.3 °C 9.9 °C 1015.1 hPa Calm     66 % 0.0 mm 0.0 W/m2 CLR
04:13 16.2 °C 9.8 °C 1015.1 hPa Calm     66 % 0.0 mm 0.0 W/m2 CLR
04:18 16.1 °C 9.9 °C 1015.1 hPa Calm     67 % 0.0 mm 0.0 W/m2 CLR
04:23 15.9 °C 10.0 °C 1015.1 hPa Calm     68 % 0.0 mm 0.0 W/m2 CLR
04:28 15.8 °C 9.9 °C 1015.1 hPa Calm     68 % 0.0 mm 0.0 W/m2 CLR
04:33 15.7 °C 10.1 °C 1015.1 hPa Calm     69 % 0.0 mm 0.0 W/m2 CLR
04:38 15.6 °C 9.7 °C 1015.1 hPa Calm     68 % 0.0 mm 0.0 W/m2 CLR
04:43 15.6 °C 9.7 °C 1015.1 hPa Calm     68 % 0.0 mm 0.0 W/m2 CLR
04:44 15.5 °C 9.6 °C 1015.1 hPa Calm     68 % 0.0 mm 0.0 W/m2 CLR
04:49 15.4 °C 9.8 °C 1015.1 hPa Calm     69 % 0.0 mm 0.0 W/m2 CLR
04:54 15.4 °C 9.7 °C 1015.1 hPa Calm     69 % 0.0 mm 0.0 W/m2 CLR
04:59 15.3 °C 9.7 °C 1015.1 hPa Calm     69 % 0.0 mm 0.0 W/m2 CLR
05:04 15.2 °C 9.6 °C 1015.1 hPa Calm     69 % 0.0 mm 0.0 W/m2 CLR
05:09 15.1 °C 9.4 °C 1015.1 hPa Calm     69 % 0.0 mm 0.0 W/m2 CLR
05:14 15.1 °C 9.6 °C 1015.1 hPa Calm     70 % 0.0 mm 0.0 W/m2 CLR
05:19 15.0 °C 9.6 °C 1014.8 hPa Calm     70 % 0.0 mm 0.0 W/m2 CLR
05:24 14.9 °C 9.4 °C 1015.1 hPa Calm     70 % 0.0 mm 0.0 W/m2 CLR
05:29 14.7 °C 9.5 °C 1014.8 hPa Calm     71 % 0.0 mm 0.0 W/m2 CLR
05:34 14.6 °C 9.6 °C 1014.8 hPa Calm     72 % 0.0 mm 0.0 W/m2 CLR
05:39 14.6 °C 9.6 °C 1014.8 hPa Calm     72 % 0.0 mm 0.0 W/m2 CLR
05:44 14.6 °C 9.6 °C 1014.8 hPa Calm     72 % 0.0 mm 0.0 W/m2 CLR
05:49 14.5 °C 9.7 °C 1014.8 hPa Calm     73 % 0.0 mm 0.0 W/m2 CLR
05:54 14.4 °C 9.7 °C 1014.8 hPa Calm     73 % 0.0 mm 0.0 W/m2 CLR
05:59 14.4 °C 9.6 °C 1014.8 hPa Calm     73 % 0.0 mm 0.0 W/m2 CLR
06:04 14.3 °C 9.6 °C 1014.8 hPa Calm     73 % 0.0 mm 0.0 W/m2 CLR
06:09 14.3 °C 9.5 °C 1015.1 hPa Calm     73 % 0.0 mm 0.0 W/m2 CLR
06:14 14.3 °C 9.5 °C 1015.1 hPa Calm     73 % 0.0 mm 0.0 W/m2 CLR
06:19 14.2 °C 9.7 °C 1015.1 hPa Calm     74 % 0.0 mm 0.0 W/m2 CLR
06:24 14.2 °C 9.6 °C 1015.1 hPa Calm     74 % 0.0 mm 0.0 W/m2 OVC
06:29 14.2 °C 9.8 °C 1015.1 hPa Calm     75 % 0.0 mm 0.0 W/m2 OVC
06:34 14.3 °C 9.9 °C 1015.1 hPa Calm     75 % 0.0 mm 5.0 W/m2 OVC
06:39 14.3 °C 9.8 °C 1015.1 hPa Calm     74 % 0.0 mm 7.0 W/m2 BKN
06:44 14.3 °C 9.5 °C 1015.1 hPa Calm     73 % 0.0 mm 9.0 W/m2 BKN
06:49 14.2 °C 9.4 °C 1015.1 hPa Calm     73 % 0.0 mm 11.0 W/m2 BKN
06:54 14.1 °C 9.3 °C 1015.1 hPa Calm     73 % 0.0 mm 12.0 W/m2 BKN
06:59 14.1 °C 9.5 °C 1015.1 hPa Calm     74 % 0.0 mm 14.0 W/m2 BKN
07:04 14.1 °C 9.6 °C 1015.1 hPa Calm     74 % 0.0 mm 18.0 W/m2 BKN
07:09 14.1 °C 9.3 °C 1015.5 hPa Calm     73 % 0.0 mm 25.0 W/m2 BKN
07:14 14.1 °C 9.3 °C 1015.1 hPa Calm     73 % 0.0 mm 37.0 W/m2 BKN
07:19 14.2 °C 9.7 °C 1015.5 hPa Calm     74 % 0.0 mm 47.0 W/m2 SCT
07:24 14.4 °C 9.6 °C 1015.5 hPa Calm     73 % 0.0 mm 58.0 W/m2 SCT
07:29 14.6 °C 9.8 °C 1015.5 hPa Calm     73 % 0.0 mm 69.0 W/m2 FEW
07:34 14.9 °C 9.9 °C 1015.5 hPa Calm     72 % 0.0 mm 84.0 W/m2 FEW
07:39 15.2 °C 10.2 °C 1015.5 hPa Calm     72 % 0.0 mm 97.0 W/m2 FEW
07:44 15.6 °C 10.4 °C 1015.5 hPa Calm     71 % 0.0 mm 111.0 W/m2 CLR
07:49 16.1 °C 10.8 °C 1015.5 hPa Calm     71 % 0.0 mm 123.0 W/m2 CLR
07:54 16.6 °C 10.8 °C 1015.5 hPa Calm     69 % 0.0 mm 142.0 W/m2 CLR
07:59 16.9 °C 10.8 °C 1015.5 hPa Calm     67 % 0.0 mm 162.0 W/m2 CLR
08:04 17.3 °C 10.9 °C 1015.5 hPa Calm     66 % 0.0 mm 176.0 W/m2 CLR
08:09 17.6 °C 11.2 °C 1015.8 hPa Calm     66 % 0.0 mm 192.0 W/m2 CLR
08:14 17.8 °C 11.2 °C 1015.8 hPa Calm     65 % 0.0 mm 211.0 W/m2 CLR
08:19 18.0 °C 11.3 °C 1015.8 hPa Calm     65 % 0.0 mm 225.0 W/m2 CLR
08:24 18.4 °C 11.7 °C 1015.8 hPa Calm     65 % 0.0 mm 241.0 W/m2 CLR
08:29 19.0 °C 12.3 °C 1015.8 hPa Calm     65 % 0.0 mm 255.0 W/m2 CLR
08:34 19.5 °C 12.3 °C 1015.8 hPa Calm     63 % 0.0 mm 269.0 W/m2 CLR
08:39 20.1 °C 12.3 °C 1015.8 hPa Calm     61 % 0.0 mm 288.0 W/m2 CLR
08:44 20.4 °C 12.4 °C 1015.8 hPa Calm     60 % 0.0 mm 302.0 W/m2 CLR
08:49 21.0 °C 12.7 °C 1015.8 hPa Calm     59 % 0.0 mm 316.0 W/m2 CLR
08:54 21.3 °C 13.0 °C 1015.8 hPa Calm     59 % 0.0 mm 330.0 W/m2 CLR
08:59 21.9 °C 13.5 °C 1015.8 hPa Calm     59 % 0.0 mm 348.0 W/m2 CLR
09:04 22.4 °C 14.1 °C 1015.8 hPa Calm     59 % 0.0 mm 364.0 W/m2 CLR
09:09 22.6 °C 14.4 °C 1015.8 hPa Calm     60 % 0.0 mm 378.0 W/m2 CLR
09:14 22.8 °C 14.9 °C 1015.8 hPa Calm     61 % 0.0 mm 394.0 W/m2 CLR
09:19 23.2 °C 14.9 °C 1015.8 hPa Calm     60 % 0.0 mm 413.0 W/m2 CLR
09:24 23.5 °C 15.3 °C 1015.8 hPa Calm     60 % 0.0 mm 427.0 W/m2 CLR
09:29 23.8 °C 15.1 °C 1015.8 hPa Calm     58 % 0.0 mm 439.0 W/m2 CLR
09:34 24.1 °C 14.7 °C 1015.8 hPa Calm     56 % 0.0 mm 457.0 W/m2 CLR
09:39 24.4 °C 14.5 °C 1015.8 hPa Calm     54 % 0.0 mm 471.0 W/m2 CLR
09:44 24.8 °C 14.3 °C 1015.5 hPa Calm     52 % 0.0 mm 485.0 W/m2 CLR
09:49 25.2 °C 14.4 °C 1015.8 hPa Calm     51 % 0.0 mm 499.0 W/m2 CLR
09:54 25.4 °C 15.4 °C 1015.5 hPa Calm     54 % 0.0 mm 517.0 W/m2 CLR
09:59 25.6 °C 15.8 °C 1015.5 hPa Calm     55 % 0.0 mm 531.0 W/m2 CLR
10:04 25.9 °C 15.9 °C 1015.5 hPa Calm     54 % 0.0 mm 545.0 W/m2 CLR
10:09 26.2 °C 15.8 °C 1015.5 hPa NE 5.6 km/h 5.6 km/h 53 % 0.0 mm 557.0 W/m2 CLR
10:14 26.3 °C 16.2 °C 1015.5 hPa ENE 3.7 km/h 3.7 km/h 54 % 0.0 mm 571.0 W/m2 CLR
10:19 26.2 °C 16.1 °C 1015.5 hPa NE 1.9 km/h   54 % 0.0 mm 584.0 W/m2 CLR
10:24 26.3 °C 16.3 °C 1015.5 hPa NNE 11.1 km/h 11.1 km/h 54 % 0.0 mm 598.0 W/m2 CLR
10:29 26.4 °C 16.1 °C 1015.5 hPa NE 7.4 km/h 7.4 km/h 53 % 0.0 mm 615.0 W/m2 CLR
10:34 26.7 °C 16.3 °C 1015.1 hPa ENE 11.1 km/h 11.1 km/h 53 % 0.0 mm 629.0 W/m2 CLR
10:40 27.1 °C 16.1 °C 1015.1 hPa NE 11.1 km/h 11.1 km/h 51 % 0.0 mm 640.0 W/m2 CLR
10:45 27.0 °C 16.0 °C 1015.1 hPa NE 5.6 km/h 6.1 km/h 51 % 0.0 mm 652.0 W/m2 CLR
10:50 27.2 °C 15.9 °C 1015.1 hPa NE 7.4 km/h 7.4 km/h 50 % 0.0 mm 668.0 W/m2 CLR
10:55 27.4 °C 16.1 °C 1015.1 hPa ENE 9.3 km/h   50 % 0.0 mm 679.0 W/m2 CLR
11:00 27.8 °C 15.8 °C 1015.1 hPa NE 13.0 km/h 13.0 km/h 48 % 0.0 mm 691.0 W/m2 CLR
11:05 27.9 °C 15.6 °C 1015.1 hPa Calm     47 % 0.0 mm 703.0 W/m2 CLR
11:10 28.1 °C 15.7 °C 1015.1 hPa North 8.0 km/h 8.0 km/h 47 % 0.0 mm 715.0 W/m2 CLR
11:15 28.4 °C 15.7 °C 1015.1 hPa NNE 11.1 km/h 11.1 km/h 46 % 0.0 mm 729.0 W/m2 CLR
11:20 28.4 °C 15.7 °C 1015.1 hPa ENE 14.8 km/h 14.8 km/h 46 % 0.0 mm 740.0 W/m2 CLR
11:25 28.4 °C 16.1 °C 1014.8 hPa NE 13.0 km/h 13.0 km/h 47 % 0.0 mm 749.0 W/m2 CLR
11:30 28.4 °C 15.7 °C 1014.8 hPa ENE 11.1 km/h 11.1 km/h 46 % 0.0 mm 759.0 W/m2 CLR
11:35 28.4 °C 15.7 °C 1014.8 hPa NE 18.5 km/h 18.5 km/h 46 % 0.0 mm 772.0 W/m2 CLR
11:40 28.4 °C 15.7 °C 1014.8 hPa ENE 16.7 km/h 16.7 km/h 46 % 0.0 mm 780.0 W/m2 CLR
11:45 28.6 °C 15.8 °C 1014.8 hPa NNE 11.1 km/h 11.1 km/h 46 % 0.0 mm 789.0 W/m2 CLR
11:50 28.8 °C 15.7 °C 1014.4 hPa NE 11.1 km/h 11.1 km/h 45 % 0.0 mm 800.0 W/m2 CLR
11:55 28.8 °C 15.7 °C 1014.4 hPa NE 14.8 km/h 14.8 km/h 45 % 0.0 mm 810.0 W/m2 CLR
12:00 29.0 °C 15.5 °C 1014.4 hPa NE 18.5 km/h 18.5 km/h 44 % 0.0 mm 821.0 W/m2 CLR
12:05 29.1 °C 15.6 °C 1014.4 hPa NE 14.8 km/h 14.8 km/h 44 % 0.0 mm 830.0 W/m2 CLR
12:10 29.4 °C 15.5 °C 1014.4 hPa East 14.8 km/h 14.8 km/h 43 % 0.0 mm 837.0 W/m2 CLR
12:15 29.7 °C 15.8 °C 1014.8 hPa ENE 7.4 km/h 7.4 km/h 43 % 0.0 mm 846.0 W/m2 CLR
12:20 29.8 °C 15.6 °C 1014.8 hPa ENE 9.3 km/h 9.3 km/h 42 % 0.0 mm 856.0 W/m2 CLR
12:25 30.0 °C 15.7 °C 1014.4 hPa ENE 7.4 km/h 7.4 km/h 42 % 0.0 mm 860.0 W/m2 CLR
12:30 30.2 °C 15.5 °C 1014.4 hPa ESE 9.3 km/h 9.3 km/h 41 % 0.0 mm 867.0 W/m2 CLR
12:35 30.1 °C 15.7 °C 1014.4 hPa SE 14.5 km/h 14.5 km/h 42 % 0.0 mm 874.0 W/m2 CLR
12:40 30.1 °C 15.7 °C 1014.4 hPa ESE 11.1 km/h 11.1 km/h 42 % 0.0 mm 881.0 W/m2 CLR
12:45 30.3 °C 16.3 °C 1014.1 hPa ESE 13.0 km/h 13.0 km/h 43 % 0.0 mm 886.0 W/m2 CLR
12:50 30.4 °C 16.1 °C 1014.1 hPa ESE 18.5 km/h 18.5 km/h 42 % 0.0 mm 889.0 W/m2 CLR
12:55 30.4 °C 15.7 °C 1014.1 hPa East 6.4 km/h 6.4 km/h 41 % 0.0 mm 896.0 W/m2 CLR
13:00 30.4 °C 15.7 °C 1014.1 hPa ESE 11.1 km/h 11.1 km/h 41 % 0.0 mm 904.0 W/m2 CLR
13:05 30.6 °C 15.4 °C 1014.1 hPa SE 11.1 km/h 11.1 km/h 40 % 0.0 mm 905.0 W/m2 CLR
13:10 30.8 °C 16.1 °C 1014.1 hPa ENE 7.4 km/h 7.4 km/h 41 % 0.0 mm 905.0 W/m2 CLR
13:12 31.0 °C 15.4 °C 1014.1 hPa East 16.7 km/h 16.7 km/h 39 % 0.0 mm 911.0 W/m2 CLR
13:17 31.1 °C 15.4 °C 1014.1 hPa SE 13.0 km/h 13.0 km/h 39 % 0.0 mm 914.0 W/m2 CLR
13:22 30.8 °C 15.2 °C 1013.8 hPa SSE 13.0 km/h   39 % 0.0 mm 916.0 W/m2 CLR
13:27 31.1 °C 15.9 °C 1013.8 hPa East 13.0 km/h 13.0 km/h 40 % 0.0 mm 916.0 W/m2 CLR
13:32 31.2 °C 15.9 °C 1013.8 hPa NE 9.3 km/h 9.3 km/h 40 % 0.0 mm 919.0 W/m2 CLR
13:37 31.5 °C 16.7 °C 1013.8 hPa East 16.7 km/h 16.7 km/h 41 % 0.0 mm 921.0 W/m2 CLR
13:42 31.4 °C 16.9 °C 1013.8 hPa SE 18.5 km/h 18.5 km/h 42 % 0.0 mm 921.0 W/m2 CLR
13:47 31.3 °C 16.9 °C 1013.8 hPa ENE 18.5 km/h 18.5 km/h 42 % 0.0 mm 928.0 W/m2 CLR
13:52 31.4 °C 17.3 °C 1013.8 hPa ESE 14.5 km/h 14.5 km/h 43 % 0.0 mm 926.0 W/m2 CLR
13:57 31.5 °C 17.4 °C 1013.4 hPa ENE 7.4 km/h 7.4 km/h 43 % 0.0 mm 930.0 W/m2 CLR
14:02 31.5 °C 17.4 °C 1013.4 hPa ENE 18.5 km/h 18.5 km/h 43 % 0.0 mm 930.0 W/m2 CLR
14:07 31.7 °C 17.6 °C 1013.4 hPa ENE 18.5 km/h 18.5 km/h 43 % 0.0 mm 928.0 W/m2 CLR
14:12 31.5 °C 17.8 °C 1013.4 hPa ESE 18.5 km/h 18.5 km/h 44 % 0.0 mm 928.0 W/m2 CLR
14:17 31.7 °C 18.3 °C 1013.1 hPa ENE 18.5 km/h 18.5 km/h 45 % 0.0 mm 930.0 W/m2 CLR
14:23 31.7 °C 17.9 °C 1013.1 hPa East 14.8 km/h 14.8 km/h 44 % 0.0 mm 932.0 W/m2 CLR
14:28 31.6 °C 17.8 °C 1013.1 hPa ENE 18.5 km/h 18.5 km/h 44 % 0.0 mm 930.0 W/m2 CLR
14:33 31.7 °C 18.3 °C 1013.1 hPa ESE 20.4 km/h 20.4 km/h 45 % 0.0 mm 923.0 W/m2 CLR
14:38 31.6 °C 17.8 °C 1013.1 hPa East 22.2 km/h 22.2 km/h 44 % 0.0 mm 921.0 W/m2 CLR
14:43 31.6 °C 18.2 °C 1013.1 hPa ENE 24.1 km/h 24.1 km/h 45 % 0.0 mm 914.0 W/m2 CLR
14:48 31.4 °C 18.0 °C 1013.1 hPa ENE 24.1 km/h 24.1 km/h 45 % 0.0 mm 918.0 W/m2 CLR
14:53 31.7 °C 17.9 °C 1013.1 hPa East 18.5 km/h 18.5 km/h 44 % 0.0 mm 914.0 W/m2 CLR
14:58 31.9 °C 17.8 °C 1012.8 hPa East 22.2 km/h 22.2 km/h 43 % 0.0 mm 907.0 W/m2 CLR
15:03 31.8 °C 18.1 °C 1012.8 hPa ENE 24.1 km/h 24.1 km/h 44 % 0.0 mm 900.0 W/m2 CLR
15:08 31.9 °C 18.1 °C 1012.8 hPa East 24.1 km/h 24.1 km/h 44 % 0.0 mm 898.0 W/m2 CLR
15:13 31.8 °C 18.1 °C 1012.4 hPa ENE 25.9 km/h 25.9 km/h 44 % 0.0 mm 893.0 W/m2 CLR
15:18 31.8 °C 18.1 °C 1012.4 hPa East 25.9 km/h 25.9 km/h 44 % 0.0 mm 889.0 W/m2 CLR
15:20 31.8 °C 18.1 °C 1012.4 hPa East 14.8 km/h 14.8 km/h 44 % 0.0 mm 888.0 W/m2 CLR
15:25 32.1 °C 17.9 °C 1012.4 hPa ESE 22.2 km/h 22.2 km/h 43 % 0.0 mm 884.0 W/m2 CLR
15:30 31.9 °C 18.2 °C 1012.4 hPa ESE 20.4 km/h 20.4 km/h 44 % 0.0 mm 875.0 W/m2 CLR
15:35 31.7 °C 17.9 °C 1012.4 hPa ESE 22.2 km/h 22.2 km/h 44 % 0.0 mm 874.0 W/m2 CLR
15:40 31.8 °C 18.1 °C 1012.4 hPa East 22.2 km/h 22.2 km/h 44 % 0.0 mm 867.0 W/m2 CLR
15:45 31.6 °C 17.9 °C 1012.1 hPa ENE 25.9 km/h 25.9 km/h 44 % 0.0 mm 858.0 W/m2 CLR
15:50 31.7 °C 17.9 °C 1012.4 hPa East 27.8 km/h 27.8 km/h 44 % 0.0 mm 851.0 W/m2 CLR
15:55 31.7 °C 17.9 °C 1012.4 hPa ESE 29.6 km/h 29.6 km/h 44 % 0.0 mm 842.0 W/m2 CLR
16:00 32.1 °C 17.9 °C 1012.1 hPa East 24.1 km/h 24.1 km/h 43 % 0.0 mm 831.0 W/m2 CLR
16:05 31.9 °C 17.8 °C 1012.1 hPa East 18.5 km/h 18.5 km/h 43 % 0.0 mm 823.0 W/m2 CLR
16:10 32.2 °C 17.3 °C 1012.1 hPa East 24.1 km/h 24.1 km/h 41 % 0.0 mm 816.0 W/m2 CLR
16:15 32.3 °C 17.7 °C 1012.1 hPa East 24.1 km/h 24.1 km/h 42 % 0.0 mm 807.0 W/m2 CLR
16:20 32.5 °C 17.9 °C 1011.7 hPa ESE 20.4 km/h 20.4 km/h 42 % 0.0 mm 796.0 W/m2 CLR
16:25 32.6 °C 17.7 °C 1012.1 hPa East 24.1 km/h 24.1 km/h 41 % 0.0 mm 788.0 W/m2 CLR
16:30 32.7 °C 16.9 °C 1012.1 hPa SE 22.2 km/h 22.2 km/h 39 % 0.0 mm 777.0 W/m2 CLR
16:35 33.0 °C 16.8 °C 1011.7 hPa ESE 24.1 km/h 24.1 km/h 38 % 0.0 mm 766.0 W/m2 CLR
16:40 32.8 °C 16.7 °C 1011.7 hPa SE 18.5 km/h 18.5 km/h 38 % 0.0 mm 754.0 W/m2 CLR
16:45 32.7 °C 16.9 °C 1011.7 hPa SSE 25.9 km/h 25.9 km/h 39 % 0.0 mm 745.0 W/m2 CLR
16:50 32.8 °C 17.0 °C 1011.7 hPa ESE 24.1 km/h 24.1 km/h 39 % 0.0 mm 735.0 W/m2 CLR
16:55 32.8 °C 17.4 °C 1011.7 hPa East 27.8 km/h 27.8 km/h 40 % 0.0 mm 724.0 W/m2 CLR
17:00 32.7 °C 17.3 °C 1011.7 hPa SE 29.6 km/h 29.6 km/h 40 % 0.0 mm 710.0 W/m2 CLR
17:05 32.8 °C 17.0 °C 1012.1 hPa ESE 29.6 km/h 29.6 km/h 39 % 0.0 mm 700.0 W/m2 CLR
17:10 32.6 °C 17.3 °C 1011.7 hPa SE 19.3 km/h 19.3 km/h 40 % 0.0 mm 686.0 W/m2 CLR
17:15 32.6 °C 16.4 °C 1011.7 hPa SE 31.5 km/h 31.5 km/h 38 % 0.0 mm 675.0 W/m2 CLR
17:20 32.6 °C 16.4 °C 1011.7 hPa SE 27.8 km/h 27.8 km/h 38 % 0.0 mm 664.0 W/m2 CLR
17:25 32.3 °C 16.6 °C 1011.7 hPa SE 33.3 km/h 33.3 km/h 39 % 0.0 mm 647.0 W/m2 CLR
17:30 32.5 °C 16.3 °C 1011.7 hPa SSE 22.2 km/h 22.2 km/h 38 % 0.0 mm 635.0 W/m2 CLR
17:35 32.6 °C 16.0 °C 1011.7 hPa SSE 31.5 km/h 31.5 km/h 37 % 0.0 mm 622.0 W/m2 CLR
17:40 32.2 °C 16.4 °C 1011.7 hPa SSE 31.5 km/h 31.5 km/h 39 % 0.0 mm 610.0 W/m2 CLR
17:45 32.1 °C 16.8 °C 1011.7 hPa ESE 25.7 km/h 25.7 km/h 40 % 0.0 mm 592.0 W/m2 CLR
17:50 31.7 °C 16.8 °C 1011.7 hPa ESE 27.8 km/h 27.8 km/h 41 % 0.0 mm 582.0 W/m2 CLR
17:55 31.4 °C 17.0 °C 1011.7 hPa ESE 24.1 km/h 24.1 km/h 42 % 0.0 mm 566.0 W/m2 CLR
18:00 31.4 °C 17.3 °C 1011.7 hPa ESE 24.1 km/h 24.1 km/h 43 % 0.0 mm 555.0 W/m2 CLR
18:05 31.1 °C 17.4 °C 1011.7 hPa ESE 25.9 km/h 25.9 km/h 44 % 0.0 mm 541.0 W/m2 CLR
18:10 30.9 °C 17.3 °C 1011.7 hPa SE 25.9 km/h 25.9 km/h 44 % 0.0 mm 526.0 W/m2 CLR
18:15 30.5 °C 17.2 °C 1011.7 hPa ESE 24.1 km/h 24.1 km/h 45 % 0.0 mm 510.0 W/m2 CLR
18:20 30.4 °C 17.4 °C 1011.7 hPa ESE 25.9 km/h 25.9 km/h 46 % 0.0 mm 497.0 W/m2 CLR
18:25 30.3 °C 17.4 °C 1011.7 hPa SE 31.5 km/h 31.5 km/h 46 % 0.0 mm 480.0 W/m2 CLR
18:31 30.0 °C 17.1 °C 1011.4 hPa ESE 31.5 km/h 31.5 km/h 46 % 0.0 mm 462.0 W/m2 CLR
18:36 29.8 °C 16.9 °C 1011.4 hPa ESE 27.8 km/h 27.8 km/h 46 % 0.0 mm 436.0 W/m2 CLR
18:41 29.8 °C 16.9 °C 1011.7 hPa SE 29.6 km/h 29.6 km/h 46 % 0.0 mm 424.0 W/m2 CLR
18:46 30.0 °C 17.1 °C 1011.7 hPa SSE 22.5 km/h 22.5 km/h 46 % 0.0 mm 410.0 W/m2 CLR
18:51 30.1 °C 16.8 °C 1011.4 hPa ESE 32.2 km/h 32.2 km/h 45 % 0.0 mm 396.0 W/m2 CLR
18:56 29.7 °C 16.8 °C 1011.4 hPa SE 29.6 km/h 29.6 km/h 46 % 0.0 mm 374.0 W/m2 CLR
19:01 29.6 °C 16.7 °C 1011.4 hPa ESE 29.6 km/h 29.6 km/h 46 % 0.0 mm 360.0 W/m2 CLR
19:06 29.4 °C 16.9 °C 1011.4 hPa SSE 25.9 km/h 25.9 km/h 47 % 0.0 mm 352.0 W/m2 CLR
19:11 29.4 °C 16.6 °C 1011.4 hPa SE 24.1 km/h 24.1 km/h 46 % 0.0 mm 339.0 W/m2 CLR
19:16 29.3 °C 16.8 °C 1011.4 hPa ESE 24.1 km/h 24.1 km/h 47 % 0.0 mm 325.0 W/m2 CLR
19:21 29.4 °C 16.9 °C 1011.4 hPa SE 25.9 km/h 25.9 km/h 47 % 0.0 mm 313.0 W/m2 CLR
19:26 29.3 °C 16.8 °C 1011.4 hPa SE 18.5 km/h 18.5 km/h 47 % 0.0 mm 301.0 W/m2 CLR
19:31 29.4 °C 16.9 °C 1011.4 hPa SE 20.4 km/h 20.4 km/h 47 % 0.0 mm 283.0 W/m2 CLR
19:36 29.4 °C 16.9 °C 1011.4 hPa ESE 13.0 km/h 13.0 km/h 47 % 0.0 mm 262.0 W/m2 CLR
19:41 29.3 °C 16.8 °C 1011.4 hPa ESE 18.5 km/h 18.5 km/h 47 % 0.0 mm 262.0 W/m2 CLR
19:46 29.4 °C 16.6 °C 1011.4 hPa ESE 16.7 km/h 16.7 km/h 46 % 0.0 mm 244.0 W/m2 CLR
19:51 29.4 °C 16.6 °C 1011.4 hPa ESE 18.5 km/h 18.5 km/h 46 % 0.0 mm 221.0 W/m2 CLR
19:56 29.2 °C 16.4 °C 1011.4 hPa ESE 18.5 km/h 18.5 km/h 46 % 0.0 mm 206.0 W/m2 CLR
20:01 29.1 °C 16.3 °C 1011.4 hPa ESE 19.3 km/h 19.3 km/h 46 % 0.0 mm 186.0 W/m2 CLR
20:06 28.9 °C 16.1 °C 1011.4 hPa ESE 20.4 km/h 20.4 km/h 46 % 0.0 mm 167.0 W/m2 CLR
20:11 28.8 °C 16.0 °C 1011.4 hPa SE 16.7 km/h 16.7 km/h 46 % 0.0 mm 151.0 W/m2 CLR
20:16 28.8 °C 15.7 °C 1011.4 hPa ESE 7.4 km/h 7.4 km/h 45 % 0.0 mm 135.0 W/m2 CLR
20:21 28.9 °C 15.8 °C 1011.7 hPa ESE 20.4 km/h 20.4 km/h 45 % 0.0 mm 120.0 W/m2 CLR
20:26 28.8 °C 15.3 °C 1011.4 hPa SE 14.8 km/h 14.8 km/h 44 % 0.0 mm 104.0 W/m2 CLR
20:31 28.7 °C 15.3 °C 1011.4 hPa ESE 18.5 km/h 18.5 km/h 44 % 0.0 mm 91.0 W/m2 CLR
20:36 28.6 °C 15.2 °C 1011.4 hPa SE 19.3 km/h 19.3 km/h 44 % 0.0 mm 79.0 W/m2 FEW
20:41 28.5 °C 15.1 °C 1011.4 hPa ESE 14.8 km/h 14.8 km/h 44 % 0.0 mm 67.0 W/m2 FEW
20:46 28.4 °C 14.9 °C 1011.7 hPa ESE 9.3 km/h 9.3 km/h 44 % 0.0 mm 58.0 W/m2 SCT
20:51 28.3 °C 15.6 °C 1011.7 hPa ESE 9.3 km/h 9.3 km/h 46 % 0.0 mm 39.0 W/m2 BKN
20:56 27.9 °C 15.9 °C 1011.7 hPa ESE 11.1 km/h 11.1 km/h 48 % 0.0 mm 39.0 W/m2 BKN
21:01 27.7 °C 16.0 °C 1011.7 hPa SE 19.3 km/h 19.3 km/h 49 % 0.0 mm 32.0 W/m2 BKN
21:06 27.4 °C 15.8 °C 1011.7 hPa ESE 16.7 km/h 16.7 km/h 49 % 0.0 mm 26.0 W/m2 BKN
21:11 27.3 °C 15.6 °C 1011.7 hPa ESE 16.7 km/h 16.7 km/h 49 % 0.0 mm 21.0 W/m2 BKN
21:16 27.2 °C 15.9 °C 1011.7 hPa ESE 14.8 km/h 14.8 km/h 50 % 0.0 mm 18.0 W/m2 BKN
21:21 27.1 °C 15.5 °C 1011.7 hPa SE 16.7 km/h 16.7 km/h 49 % 0.0 mm 12.0 W/m2 BKN
21:26 27.1 °C 15.1 °C 1011.7 hPa SE 16.1 km/h 16.1 km/h 48 % 0.0 mm 9.0 W/m2 BKN
21:31 26.9 °C 15.3 °C 1011.7 hPa SSE 18.5 km/h 18.5 km/h 49 % 0.0 mm 5.0 W/m2 OVC
21:36 26.8 °C 15.2 °C 1011.7 hPa ESE 13.0 km/h 13.0 km/h 49 % 0.0 mm 0.0 W/m2 OVC
21:41 26.6 °C 15.3 °C 1011.7 hPa East 5.6 km/h 5.6 km/h 50 % 0.0 mm 0.0 W/m2 OVC
21:46 26.4 °C 15.5 °C 1011.7 hPa NE 8.0 km/h 8.0 km/h 51 % 0.0 mm 0.0 W/m2 CLR
21:51 26.2 °C 15.6 °C 1011.7 hPa East 8.0 km/h 8.0 km/h 52 % 0.0 mm 0.0 W/m2 CLR
21:56 26.0 °C 15.4 °C 1011.7 hPa Calm     52 % 0.0 mm 0.0 W/m2 CLR
22:01 25.9 °C 15.3 °C 1012.1 hPa ESE 14.8 km/h 14.8 km/h 52 % 0.0 mm 0.0 W/m2 CLR
22:06 25.9 °C 15.0 °C 1012.1 hPa ESE 9.3 km/h 9.3 km/h 51 % 0.0 mm 0.0 W/m2 CLR
22:11 25.8 °C 14.9 °C 1012.4 hPa ESE 11.1 km/h 11.1 km/h 51 % 0.0 mm 0.0 W/m2 CLR
22:16 25.9 °C 14.7 °C 1012.4 hPa ESE 5.6 km/h 5.6 km/h 50 % 0.0 mm 0.0 W/m2 CLR
22:21 25.8 °C 14.6 °C 1012.4 hPa SE 9.3 km/h 9.3 km/h 50 % 0.0 mm 0.0 W/m2 CLR
22:26 25.8 °C 14.6 °C 1012.8 hPa SE 9.3 km/h 9.3 km/h 50 % 0.0 mm 0.0 W/m2 CLR
22:31 25.7 °C 14.2 °C 1012.8 hPa SE 5.6 km/h 5.6 km/h 49 % 0.0 mm 0.0 W/m2 CLR
22:36 25.7 °C 14.2 °C 1012.8 hPa SE 7.4 km/h 7.4 km/h 49 % 0.0 mm 0.0 W/m2 CLR
22:41 25.8 °C 13.9 °C 1012.8 hPa SSE 9.7 km/h 9.7 km/h 48 % 0.0 mm 0.0 W/m2 CLR
22:46 25.9 °C 14.1 °C 1012.8 hPa SE 9.3 km/h 9.3 km/h 48 % 0.0 mm 0.0 W/m2 CLR
22:51 25.9 °C 14.1 °C 1013.1 hPa SE 11.1 km/h 11.1 km/h 48 % 0.0 mm 0.0 W/m2 CLR
22:56 25.8 °C 14.0 °C 1013.1 hPa Calm     48 % 0.0 mm 0.0 W/m2 CLR
23:01 25.8 °C 14.3 °C 1013.1 hPa Calm     49 % 0.0 mm 0.0 W/m2 CLR
23:06 25.8 °C 14.3 °C 1013.4 hPa Calm     49 % 0.0 mm 0.0 W/m2 CLR
23:11 25.7 °C 14.2 °C 1013.4 hPa Calm     49 % 0.0 mm 0.0 W/m2 CLR
23:16 25.7 °C 14.2 °C 1013.4 hPa Calm     49 % 0.0 mm 0.0 W/m2 CLR
23:21 25.6 °C 14.4 °C 1013.4 hPa SSE 7.4 km/h 7.4 km/h 50 % 0.0 mm 0.0 W/m2 CLR
23:26 25.5 °C 14.6 °C 1013.4 hPa Calm     51 % 0.0 mm 0.0 W/m2 CLR
23:31 25.4 °C 14.6 °C 1013.8 hPa Calm     51 % 0.0 mm 0.0 W/m2 CLR
23:36 25.3 °C 14.8 °C 1013.8 hPa SSW 5.6 km/h   52 % 0.0 mm 0.0 W/m2 CLR
23:37 25.3 °C 14.8 °C 1013.8 hPa South 5.6 km/h 5.6 km/h 52 % 0.0 mm 0.0 W/m2 CLR
23:42 25.3 °C 14.7 °C 1014.1 hPa South 3.7 km/h 3.7 km/h 52 % 0.0 mm 0.0 W/m2 CLR
23:47 25.2 °C 14.6 °C 1014.4 hPa South 9.7 km/h 9.7 km/h 52 % 0.0 mm 0.0 W/m2 CLR
23:52 25.2 °C 14.6 °C 1014.4 hPa SSE 12.9 km/h 12.9 km/h 52 % 0.0 mm 0.0 W/m2 CLR
23:57 25.1 °C 14.8 °C 1014.4 hPa SE 12.9 km/h 12.9 km/h 53 % 0.0 mm 0.0 W/m2 CLR
Lo Temps de Massalio
Compliments of Weather Underground - 1.25 mb